Time;durP1;ratioP1;P1;durP2;ratioP2;P2;SDS_P1;SDS_P2;PMS_P1;PMS_P2;Temp;Humidity;BMP_temperature;BMP_pressure;BME280_temperature;BME280_humidity;BME280_pressure;Samples;Min_cycle;Max_cycle;Signal;HPM_P1;HPM_P2
2023/06/18 00:00:53;;;;;;;5.45;3.97;;;17.90;79.40;;;;;;5095159;28;20031;-72
2023/06/18 00:03:19;;;;;;;5.97;4.53;;;17.90;79.30;;;;;;5113256;28;20019;-71
2023/06/18 00:05:45;;;;;;;5.43;4.20;;;17.90;79.00;;;;;;5112854;28;20031;-73
2023/06/18 00:08:11;;;;;;;4.97;4.30;;;17.90;78.80;;;;;;5113021;28;20023;-73
2023/06/18 00:10:37;;;;;;;4.53;3.97;;;17.90;78.60;;;;;;5112996;28;20059;-71
2023/06/18 00:13:03;;;;;;;4.85;4.07;;;17.90;78.90;;;;;;5113391;28;20047;-72
2023/06/18 00:15:29;;;;;;;6.20;4.05;;;17.90;78.80;;;;;;5111825;28;20124;-72
2023/06/18 00:17:55;;;;;;;6.93;4.28;;;17.90;78.60;;;;;;5113058;28;20055;-72
2023/06/18 00:20:21;;;;;;;5.43;4.20;;;17.90;78.70;;;;;;5113067;28;20116;-73
2023/06/18 00:22:48;;;;;;;5.85;4.03;;;17.90;78.70;;;;;;5112701;28;20093;-72
2023/06/18 00:25:14;;;;;;;5.85;3.60;;;17.90;78.60;;;;;;5114447;28;20099;-72
2023/06/18 00:27:40;;;;;;;4.93;4.22;;;17.90;78.50;;;;;;5112656;28;20059;-72
2023/06/18 00:30:07;;;;;;;5.55;4.53;;;18.00;78.00;;;;;;5113007;28;20357;-72
2023/06/18 00:32:32;;;;;;;7.10;3.92;;;18.00;78.20;;;;;;5112668;28;20414;-72
2023/06/18 00:35:00;;;;;;;5.10;4.35;;;18.00;77.80;;;;;;5094709;28;20031;-72
2023/06/18 00:37:27;;;;;;;5.53;4.22;;;18.00;77.90;;;;;;5112487;28;20410;-73
2023/06/18 00:39:54;;;;;;;5.38;4.30;;;18.00;78.10;;;;;;5112838;28;20023;-72
2023/06/18 00:42:21;;;;;;;4.82;4.18;;;18.00;78.10;;;;;;5112947;28;20058;-72
2023/06/18 00:44:47;;;;;;;6.53;4.03;;;18.00;78.00;;;;;;5112457;28;20027;-72
2023/06/18 00:47:13;;;;;;;6.50;4.55;;;18.00;78.00;;;;;;5071274;28;20056;-72
2023/06/18 00:49:42;;;;;;;7.38;4.80;;;18.00;78.00;;;;;;5072019;28;20400;-72
2023/06/18 00:52:12;;;;;;;7.25;4.38;;;18.00;78.10;;;;;;5072024;28;20024;-72
2023/06/18 00:54:40;;;;;;;6.38;4.53;;;18.00;78.40;;;;;;5072942;28;20492;-70
2023/06/18 00:57:08;;;;;;;5.35;4.47;;;18.00;79.20;;;;;;5070915;28;20384;-71
2023/06/18 00:59:34;;;;;;;5.55;4.00;;;17.90;79.50;;;;;;5071513;28;20499;-72
2023/06/18 01:02:01;;;;;;;5.43;4.40;;;17.90;79.90;;;;;;5071948;28;20070;-72
2023/06/18 01:04:28;;;;;;;6.70;4.65;;;17.80;80.50;;;;;;5072185;28;20035;-72
2023/06/18 01:06:55;;;;;;;5.45;4.38;;;17.70;80.80;;;;;;5071949;28;20025;-72
2023/06/18 01:09:22;;;;;;;5.60;4.47;;;17.70;81.20;;;;;;5072493;28;20419;-71
2023/06/18 01:11:53;;;;;;;6.03;4.70;;;17.60;82.10;;;;;;5070480;28;20491;-72
2023/06/18 01:14:23;;;;;;;8.23;4.57;;;17.60;82.80;;;;;;5072939;28;20036;-71
2023/06/18 01:16:55;;;;;;;6.97;5.03;;;17.60;83.30;;;;;;5074262;28;20154;-70
2023/06/18 01:20:08;;;;;;;7.75;5.00;;;17.50;83.60;;;;;;5074125;28;20021;-71
2023/06/18 01:22:51;;;;;;;5.55;4.80;;;17.50;83.80;;;;;;5009891;28;20037;-72
2023/06/18 01:25:18;;;;;;;7.68;5.00;;;17.50;84.20;;;;;;5079649;28;20388;-73
2023/06/18 01:27:46;;;;;;;6.70;4.68;;;17.40;84.80;;;;;;5093865;28;20035;-71
2023/06/18 01:30:14;;;;;;;6.85;5.32;;;17.40;85.70;;;;;;5095818;28;20465;-74
2023/06/18 01:32:40;;;;;;;6.15;5.00;;;17.40;85.80;;;;;;5095489;28;20115;-73
2023/06/18 01:35:15;;;;;;;9.15;4.95;;;17.30;86.20;;;;;;5095615;28;20062;-73
2023/06/18 01:37:44;;;;;;;6.38;4.60;;;17.30;86.70;;;;;;5078143;28;20182;-73
2023/06/18 01:40:12;;;;;;;6.55;4.57;;;17.30;86.70;;;;;;5095669;28;20024;-71
2023/06/18 01:42:47;;;;;;;7.30;5.13;;;17.30;86.90;;;;;;5095649;28;20031;-73
2023/06/18 01:45:40;;;;;;;5.18;4.43;;;17.20;86.90;;;;;;5101940;27;20122;-73
2023/06/18 01:48:07;;;;;;;6.70;4.95;;;17.20;87.60;;;;;;5118681;27;20019;-71
2023/06/18 01:50:35;;;;;;;11.25;5.13;;;17.10;88.10;;;;;;5135923;27;20106;-73
2023/06/18 01:53:04;;;;;;;6.22;4.38;;;17.10;88.10;;;;;;5136398;27;20027;-73
2023/06/18 01:55:33;;;;;;;7.20;4.72;;;17.00;88.40;;;;;;5136298;27;20042;-72
2023/06/18 01:58:00;;;;;;;5.75;4.57;;;17.00;88.30;;;;;;5136273;27;20023;-72
2023/06/18 02:00:26;;;;;;;5.05;4.53;;;16.90;88.80;;;;;;5136398;27;20019;-71
2023/06/18 02:02:51;;;;;;;6.28;4.75;;;16.90;88.80;;;;;;5135845;27;20027;-72
2023/06/18 02:05:18;;;;;;;8.80;4.60;;;16.80;89.20;;;;;;5136099;27;20050;-72
2023/06/18 02:07:44;;;;;;;7.65;5.13;;;16.90;89.40;;;;;;5135960;27;20031;-72
2023/06/18 02:10:10;;;;;;;5.57;4.40;;;16.80;89.20;;;;;;5136008;27;20027;-72
2023/06/18 02:12:36;;;;;;;4.72;4.15;;;16.80;89.50;;;;;;5135633;27;20027;-72
2023/06/18 02:15:02;;;;;;;5.90;4.40;;;16.80;89.80;;;;;;5135563;27;20114;-72
2023/06/18 02:17:28;;;;;;;5.03;3.97;;;16.70;89.50;;;;;;5117400;27;20027;-72
2023/06/18 02:19:54;;;;;;;5.28;4.10;;;16.70;89.70;;;;;;5135451;27;20076;-71
2023/06/18 02:22:22;;;;;;;7.05;4.78;;;16.70;90.00;;;;;;5135874;27;20031;-72
2023/06/18 02:24:48;;;;;;;5.10;4.32;;;16.70;90.10;;;;;;5135081;27;20380;-71
2023/06/18 02:27:14;;;;;;;5.82;4.43;;;16.70;90.00;;;;;;5135728;27;20020;-71
2023/06/18 02:29:41;;;;;;;5.53;4.50;;;16.70;90.10;;;;;;5129929;27;20020;-72
2023/06/18 02:32:06;;;;;;;5.95;4.72;;;16.60;90.00;;;;;;5096712;28;20491;-71
2023/06/18 02:34:32;;;;;;;5.53;4.32;;;16.60;90.10;;;;;;5114954;28;20055;-71
2023/06/18 02:36:57;;;;;;;6.95;4.70;;;16.60;90.00;;;;;;5114567;28;20384;-72
2023/06/18 02:39:23;;;;;;;6.35;4.20;;;16.60;90.20;;;;;;5114398;28;20546;-71
2023/06/18 02:41:49;;;;;;;6.65;4.68;;;16.60;90.10;;;;;;5114431;28;20035;-72
2023/06/18 02:44:14;;;;;;;5.93;4.82;;;16.60;90.10;;;;;;5114495;28;20032;-72
2023/06/18 02:46:40;;;;;;;6.60;4.72;;;16.60;90.20;;;;;;5076774;28;20053;-72
2023/06/18 02:49:06;;;;;;;8.95;4.68;;;16.60;90.20;;;;;;5074134;28;20075;-72
2023/06/18 02:51:31;;;;;;;7.10;4.75;;;16.60;90.00;;;;;;5073905;28;20055;-72
2023/06/18 02:53:59;;;;;;;6.22;4.70;;;16.60;90.10;;;;;;5073646;28;20121;-72
2023/06/18 02:56:28;;;;;;;6.07;4.65;;;16.60;90.00;;;;;;5073924;28;20039;-72
2023/06/18 02:58:56;;;;;;;8.40;5.05;;;16.60;89.80;;;;;;5074813;28;20153;-71
2023/06/18 03:01:23;;;;;;;6.43;3.92;;;16.60;89.80;;;;;;5072603;28;20168;-73
2023/06/18 03:03:49;;;;;;;7.38;4.32;;;16.60;89.90;;;;;;5072099;28;20028;-70
2023/06/18 03:06:15;;;;;;;7.10;4.32;;;16.60;89.70;;;;;;5056186;28;20037;-71
2023/06/18 03:08:41;;;;;;;6.45;4.30;;;16.60;89.50;;;;;;5073321;28;20028;-73
2023/06/18 03:11:07;;;;;;;6.20;4.07;;;16.60;89.60;;;;;;5073649;28;20158;-72
2023/06/18 03:13:32;;;;;;;8.00;4.40;;;16.60;89.60;;;;;;5073557;28;20084;-72
2023/06/18 03:15:58;;;;;;;6.25;4.30;;;16.70;89.20;;;;;;5073077;28;20393;-72
2023/06/18 03:18:24;;;;;;;7.65;4.72;;;16.70;89.10;;;;;;5073727;28;20021;-72
2023/06/18 03:20:50;;;;;;;5.95;4.53;;;16.70;89.20;;;;;;5073082;28;20039;-72
2023/06/18 03:23:15;;;;;;;7.43;4.00;;;16.60;88.80;;;;;;5082869;28;20024;-72
2023/06/18 03:25:41;;;;;;;6.85;4.70;;;16.70;89.50;;;;;;5092990;28;20103;-70
2023/06/18 03:28:07;;;;;;;6.20;4.70;;;16.60;89.50;;;;;;5093878;28;20035;-71
2023/06/18 03:30:33;;;;;;;5.22;4.43;;;16.70;90.00;;;;;;5093590;28;20472;-71
2023/06/18 03:33:02;;;;;;;7.72;5.22;;;16.60;90.20;;;;;;5093106;28;20111;-73
2023/06/18 03:35:28;;;;;;;6.45;4.78;;;16.60;90.10;;;;;;5093369;28;20027;-73
2023/06/18 03:37:54;;;;;;;6.45;4.85;;;16.60;90.10;;;;;;5092991;28;20028;-73
2023/06/18 03:40:20;;;;;;;8.52;4.63;;;16.70;90.00;;;;;;5093332;28;20032;-71
2023/06/18 03:42:45;;;;;;;7.43;4.88;;;16.70;90.00;;;;;;5091589;28;20028;-71
2023/06/18 03:45:11;;;;;;;6.80;4.53;;;16.70;90.30;;;;;;5099042;27;20489;-72
2023/06/18 03:47:37;;;;;;;5.75;4.68;;;16.70;90.40;;;;;;5133979;27;20027;-73
2023/06/18 03:50:02;;;;;;;10.15;5.32;;;16.60;90.30;;;;;;5133558;27;20085;-72
2023/06/18 03:52:28;;;;;;;5.30;4.20;;;16.70;90.30;;;;;;5115494;27;20019;-72
2023/06/18 03:54:54;;;;;;;6.47;4.80;;;16.70;90.20;;;;;;5114782;27;20026;-72
2023/06/18 03:57:20;;;;;;;10.93;4.50;;;16.70;90.20;;;;;;5133853;27;20038;-72
2023/06/18 03:59:46;;;;;;;5.35;4.82;;;16.80;89.80;;;;;;5114846;28;20019;-73
2023/06/18 04:02:12;;;;;;;7.63;5.35;;;16.90;90.00;;;;;;5133799;27;20065;-71
2023/06/18 04:04:38;;;;;;;6.72;4.30;;;16.90;90.00;;;;;;5115392;27;20461;-71
2023/06/18 04:07:04;;;;;;;6.53;5.03;;;17.00;90.20;;;;;;5114907;28;20103;-72
2023/06/18 04:09:30;;;;;;;5.43;4.70;;;17.00;90.20;;;;;;5133757;27;20031;-71
2023/06/18 04:11:56;;;;;;;6.88;4.55;;;17.10;90.10;;;;;;5133346;27;20034;-71
2023/06/18 04:14:22;;;;;;;6.88;5.07;;;17.20;90.10;;;;;;5115220;27;20023;-72
2023/06/18 04:16:48;;;;;;;7.88;5.07;;;17.30;90.10;;;;;;5133094;27;20054;-71
2023/06/18 04:19:13;;;;;;;8.23;5.88;;;17.40;90.30;;;;;;5133705;27;20106;-71
2023/06/18 04:21:39;;;;;;;6.95;5.50;;;17.50;89.70;;;;;;5133602;27;20030;-71
2023/06/18 04:24:05;;;;;;;14.80;6.20;;;17.60;89.90;;;;;;5133272;27;20048;-72
2023/06/18 04:26:31;;;;;;;6.93;5.30;;;17.70;90.10;;;;;;5133670;27;20099;-71
2023/06/18 04:28:56;;;;;;;10.57;6.43;;;17.80;90.40;;;;;;5133205;28;20030;-71
2023/06/18 04:31:23;;;;;;;7.95;6.07;;;18.00;90.30;;;;;;5115134;28;20031;-71
2023/06/18 04:33:49;;;;;;;9.82;6.63;;;18.10;90.50;;;;;;5133116;28;20031;-72
2023/06/18 04:36:15;;;;;;;9.82;7.13;;;18.20;90.40;;;;;;5117457;28;20093;-71
2023/06/18 04:38:41;;;;;;;9.50;7.13;;;18.40;90.50;;;;;;5113046;28;20043;-71
2023/06/18 04:41:06;;;;;;;8.93;7.38;;;18.60;90.60;;;;;;5112810;28;20019;-71
2023/06/18 04:43:32;;;;;;;10.02;7.50;;;18.70;90.30;;;;;;5095044;28;20077;-71
2023/06/18 04:45:59;;;;;;;8.82;7.30;;;19.00;90.20;;;;;;5112287;28;20047;-72
2023/06/18 04:48:24;;;;;;;10.93;6.82;;;19.30;89.10;;;;;;5112884;28;20024;-72
2023/06/18 04:50:50;;;;;;;8.60;7.25;;;19.60;87.30;;;;;;5112684;28;20368;-72
2023/06/18 04:53:16;;;;;;;11.35;7.10;;;19.90;85.80;;;;;;5094637;28;20030;-72
2023/06/18 04:55:43;;;;;;;13.00;7.95;;;20.20;84.40;;;;;;5112681;28;20036;-71
2023/06/18 04:58:10;;;;;;;8.52;7.03;;;20.50;83.50;;;;;;5094149;28;20036;-72
2023/06/18 05:00:36;;;;;;;7.78;6.85;;;20.90;81.00;;;;;;5115061;28;20027;-71
2023/06/18 05:03:02;;;;;;;10.00;6.75;;;21.20;80.10;;;;;;5116344;28;20024;-72
2023/06/18 05:05:27;;;;;;;7.80;6.68;;;21.80;77.80;;;;;;5098435;28;20059;-71
2023/06/18 05:07:54;;;;;;;10.73;6.50;;;22.40;74.90;;;;;;5098084;28;20108;-72
2023/06/18 05:10:21;;;;;;;7.72;6.47;;;22.90;73.10;;;;;;5098305;28;20453;-72
2023/06/18 05:12:47;;;;;;;9.27;7.20;;;23.40;70.50;;;;;;5116151;28;20061;-72
2023/06/18 05:15:13;;;;;;;9.30;6.72;;;23.80;68.80;;;;;;5116467;28;20035;-72
2023/06/18 05:17:39;;;;;;;9.32;6.45;;;24.20;67.40;;;;;;5098183;28;20031;-72
2023/06/18 05:20:05;;;;;;;6.85;6.15;;;24.70;65.90;;;;;;5097739;28;20028;-72
2023/06/18 05:22:31;;;;;;;10.30;6.50;;;24.80;64.60;;;;;;5098444;28;20417;-72
2023/06/18 05:24:59;;;;;;;8.38;6.45;;;24.70;62.50;;;;;;5116048;28;20031;-73
2023/06/18 05:27:28;;;;;;;9.65;6.25;;;24.70;62.70;;;;;;5116375;28;20020;-72
2023/06/18 05:29:54;;;;;;;6.32;5.70;;;24.80;62.40;;;;;;5115873;28;20103;-73
2023/06/18 05:32:20;;;;;;;7.85;5.95;;;25.10;62.50;;;;;;5116222;28;20035;-72
2023/06/18 05:34:45;;;;;;;9.50;6.47;;;25.40;61.90;;;;;;5132839;27;20031;-72
2023/06/18 05:37:11;;;;;;;9.88;6.15;;;25.50;61.50;;;;;;5135932;27;20083;-72
2023/06/18 05:39:37;;;;;;;8.10;6.55;;;25.60;61.10;;;;;;5136310;27;20023;-72
2023/06/18 05:42:03;;;;;;;8.90;5.97;;;25.80;60.40;;;;;;5136074;27;20028;-72
2023/06/18 05:44:28;;;;;;;8.85;6.43;;;25.80;60.90;;;;;;5136276;27;20027;-72
2023/06/18 05:46:54;;;;;;;9.38;6.90;;;26.00;59.90;;;;;;5136109;27;20165;-72
2023/06/18 05:49:20;;;;;;;9.52;6.38;;;26.10;59.50;;;;;;5136329;27;20027;-72
2023/06/18 05:51:46;;;;;;;9.50;6.05;;;26.30;59.00;;;;;;5136417;27;20096;-72
2023/06/18 05:54:12;;;;;;;8.82;6.35;;;26.40;58.20;;;;;;5135897;27;20023;-72
2023/06/18 05:56:37;;;;;;;7.28;5.88;;;26.70;57.60;;;;;;5117715;27;20418;-72
2023/06/18 05:59:03;;;;;;;10.38;6.03;;;26.90;56.90;;;;;;5135847;27;20028;-72
2023/06/18 06:01:31;;;;;;;6.60;5.88;;;27.20;55.40;;;;;;5136244;27;20088;-72
2023/06/18 06:03:56;;;;;;;8.85;5.93;;;27.30;56.00;;;;;;5117351;27;20034;-72
2023/06/18 06:06:22;;;;;;;13.65;5.55;;;27.60;55.00;;;;;;5117786;27;20027;-72
2023/06/18 06:08:48;;;;;;;7.72;5.95;;;28.30;53.00;;;;;;5136360;27;20058;-72
2023/06/18 06:11:13;;;;;;;8.55;5.82;;;28.70;52.50;;;;;;5117102;27;20024;-72
2023/06/18 06:13:39;;;;;;;9.57;5.60;;;29.20;50.80;;;;;;5134625;27;20030;-71
2023/06/18 06:16:05;;;;;;;6.45;5.20;;;29.70;49.80;;;;;;5135381;27;20087;-72
2023/06/18 06:18:30;;;;;;;11.18;5.80;;;30.20;48.90;;;;;;5117370;27;20034;-72
2023/06/18 06:20:56;;;;;;;9.27;5.70;;;30.70;48.00;;;;;;5135430;27;20024;-73
2023/06/18 06:23:21;;;;;;;6.68;5.15;;;31.20;47.00;;;;;;5135759;27;20447;-72
2023/06/18 06:25:47;;;;;;;9.65;5.72;;;31.90;45.40;;;;;;5135486;27;20100;-72
2023/06/18 06:28:13;;;;;;;6.95;5.00;;;32.50;44.70;;;;;;5134175;27;20027;-72
2023/06/18 06:30:38;;;;;;;7.85;4.53;;;32.60;42.00;;;;;;5096823;28;20055;-71
2023/06/18 06:33:04;;;;;;;7.65;4.68;;;33.30;42.00;;;;;;5114290;28;20132;-72
2023/06/18 06:35:30;;;;;;;5.57;4.55;;;33.40;40.60;;;;;;5096510;28;20131;-72
2023/06/18 06:37:55;;;;;;;5.22;4.40;;;33.60;39.90;;;;;;5114458;28;20039;-71
2023/06/18 06:40:21;;;;;;;5.90;4.00;;;34.20;39.00;;;;;;5114758;28;20106;-73
2023/06/18 06:42:47;;;;;;;6.97;4.03;;;34.70;38.40;;;;;;5114996;28;20096;-72
2023/06/18 06:45:12;;;;;;;4.30;3.78;;;34.90;38.00;;;;;;5113986;28;20052;-72
2023/06/18 06:47:38;;;;;;;4.30;3.90;;;35.10;37.20;;;;;;5114854;28;20090;-72
2023/06/18 06:50:04;;;;;;;5.90;4.30;;;35.20;36.30;;;;;;5114095;28;20020;-73
2023/06/18 06:52:30;;;;;;;4.53;4.10;;;35.30;37.20;;;;;;5114888;28;20030;-73
2023/06/18 06:54:56;;;;;;;7.82;3.65;;;35.20;36.10;;;;;;5114085;28;20023;-73
2023/06/18 06:57:21;;;;;;;4.93;3.60;;;34.80;36.40;;;;;;5114283;28;20027;-72
2023/06/18 06:59:47;;;;;;;4.88;3.90;;;35.30;37.10;;;;;;5114267;28;20027;-73
2023/06/18 07:02:13;;;;;;;5.57;3.60;;;35.70;35.40;;;;;;5115688;27;20832;-73
2023/06/18 07:04:45;;;;;;;4.40;3.90;;;35.00;35.50;;;;;;5115910;27;20556;-72
2023/06/18 07:07:13;;;;;;;4.22;3.72;;;34.50;36.30;;;;;;5114034;28;20345;-73
2023/06/18 07:09:38;;;;;;;6.57;3.67;;;34.70;36.60;;;;;;5114286;28;20098;-72
2023/06/18 07:12:04;;;;;;;4.32;3.53;;;35.00;36.50;;;;;;5095518;28;20110;-73
2023/06/18 07:14:30;;;;;;;5.22;3.60;;;35.00;36.10;;;;;;5114044;28;20024;-72
2023/06/18 07:16:55;;;;;;;8.43;4.10;;;34.80;36.10;;;;;;5113536;28;20039;-74
2023/06/18 07:19:21;;;;;;;9.75;3.50;;;35.20;35.00;;;;;;5113962;28;20032;-72
2023/06/18 07:21:47;;;;;;;18.10;4.47;;;35.50;35.70;;;;;;5113712;28;20028;-72
2023/06/18 07:24:12;;;;;;;6.03;4.18;;;35.40;34.70;;;;;;5113165;28;20117;-73
2023/06/18 07:26:38;;;;;;;5.60;4.03;;;35.00;35.10;;;;;;5121751;27;20023;-72
2023/06/18 07:29:04;;;;;;;6.25;4.00;;;35.10;35.70;;;;;;5134002;27;20019;-73
2023/06/18 07:31:29;;;;;;;7.05;4.25;;;35.00;36.00;;;;;;5134492;27;20391;-72
2023/06/18 07:33:55;;;;;;;5.35;4.65;;;35.10;35.10;;;;;;5134515;27;20105;-72
2023/06/18 07:36:21;;;;;;;4.60;4.00;;;34.80;34.70;;;;;;5115869;27;20106;-72
2023/06/18 07:38:48;;;;;;;5.60;3.88;;;34.90;35.20;;;;;;5134322;27;20075;-73
2023/06/18 07:41:14;;;;;;;6.18;4.55;;;34.60;36.30;;;;;;5133669;27;20030;-72
2023/06/18 07:43:40;;;;;;;6.28;3.65;;;35.10;35.90;;;;;;5133843;27;20395;-71
2023/06/18 07:46:06;;;;;;;5.50;4.30;;;35.10;35.30;;;;;;5133460;27;20039;-72
2023/06/18 07:48:32;;;;;;;5.53;4.50;;;35.00;35.70;;;;;;5134312;27;20034;-71
2023/06/18 07:50:58;;;;;;;4.97;4.22;;;35.20;35.00;;;;;;5133255;27;20023;-73
2023/06/18 07:53:23;;;;;;;4.70;4.22;;;35.10;34.80;;;;;;5133741;27;20023;-73
2023/06/18 07:55:49;;;;;;;4.93;4.13;;;35.00;35.40;;;;;;5115568;27;20106;-73
2023/06/18 07:58:15;;;;;;;6.38;4.75;;;34.90;35.00;;;;;;5133625;27;20062;-73
2023/06/18 08:00:40;;;;;;;5.22;4.72;;;34.80;35.20;;;;;;5116122;27;20027;-72
2023/06/18 08:03:06;;;;;;;8.73;4.57;;;34.30;36.20;;;;;;5134115;27;20023;-73
2023/06/18 08:05:32;;;;;;;4.68;4.28;;;34.40;37.00;;;;;;5133843;27;20027;-72
2023/06/18 08:07:57;;;;;;;5.25;4.65;;;34.40;35.90;;;;;;5133398;27;20023;-71
2023/06/18 08:10:23;;;;;;;7.22;5.07;;;34.40;36.60;;;;;;5133061;27;20030;-73
2023/06/18 08:12:49;;;;;;;4.63;3.95;;;34.60;36.30;;;;;;5133567;27;20027;-73
2023/06/18 08:15:15;;;;;;;6.13;4.47;;;34.40;35.80;;;;;;5114676;27;20027;-73
2023/06/18 08:17:40;;;;;;;6.13;4.82;;;34.40;36.60;;;;;;5133588;27;20030;-73
2023/06/18 08:20:06;;;;;;;5.97;5.32;;;34.40;37.20;;;;;;5133234;27;20071;-73
2023/06/18 08:22:32;;;;;;;7.97;5.22;;;34.30;36.80;;;;;;5133286;27;20091;-73
2023/06/18 08:24:58;;;;;;;5.85;4.97;;;34.20;36.90;;;;;;5133141;27;20452;-72
2023/06/18 08:27:23;;;;;;;5.03;4.53;;;34.20;36.70;;;;;;5114566;28;20119;-73
2023/06/18 08:29:49;;;;;;;5.30;4.80;;;34.20;37.10;;;;;;5133791;28;20031;-73
2023/06/18 08:32:15;;;;;;;6.88;5.35;;;34.40;37.10;;;;;;5133390;28;20019;-73
2023/06/18 08:34:45;;;;;;;6.80;6.10;;;34.20;36.70;;;;;;5133408;28;20443;-72
2023/06/18 08:37:12;;;;;;;8.48;6.18;;;34.00;36.40;;;;;;5118467;27;20035;-72
2023/06/18 08:39:38;;;;;;;8.55;5.72;;;33.60;37.20;;;;;;5104836;28;20066;-72
2023/06/18 08:42:05;;;;;;;8.02;6.50;;;33.20;37.40;;;;;;5116695;28;20066;-72
2023/06/18 08:44:33;;;;;;;9.45;7.10;;;32.60;38.70;;;;;;5117044;28;20035;-72
2023/06/18 08:47:03;;;;;;;6.82;6.13;;;32.10;39.10;;;;;;5117002;28;20135;-72
2023/06/18 08:49:32;;;;;;;6.35;5.00;;;31.70;40.00;;;;;;5117137;28;20026;-73
2023/06/18 08:52:02;;;;;;;6.63;5.05;;;31.20;40.60;;;;;;5117049;28;20024;-72
2023/06/18 08:54:32;;;;;;;6.32;5.15;;;31.20;41.00;;;;;;5098504;28;20482;-72
2023/06/18 08:57:06;;;;;;;8.23;4.82;;;30.80;40.80;;;;;;5098680;28;20070;-72
2023/06/18 08:59:33;;;;;;;6.40;4.70;;;30.80;41.20;;;;;;5116587;28;20425;-73
2023/06/18 09:01:59;;;;;;;8.15;6.57;;;30.80;42.20;;;;;;5098378;28;20110;-73
2023/06/18 09:04:26;;;;;;;6.65;5.13;;;30.70;41.80;;;;;;5098285;28;20112;-73
2023/06/18 09:06:53;;;;;;;7.60;5.07;;;30.30;42.60;;;;;;5133861;27;20026;-72
2023/06/18 09:09:20;;;;;;;8.27;5.50;;;30.20;42.70;;;;;;5136645;27;20026;-71
2023/06/18 09:11:46;;;;;;;5.63;5.13;;;30.20;43.60;;;;;;5137417;27;20102;-72
2023/06/18 09:14:14;;;;;;;7.95;5.40;;;30.10;43.60;;;;;;5136301;27;20111;-73
2023/06/18 09:16:41;;;;;;;7.47;5.60;;;30.00;43.70;;;;;;5118644;27;20039;-73
2023/06/18 09:19:07;;;;;;;6.93;5.68;;;29.80;43.70;;;;;;5106483;28;20491;-74
2023/06/18 09:21:33;;;;;;;7.82;6.00;;;29.50;43.90;;;;;;5116059;28;20031;-72
2023/06/18 09:23:59;;;;;;;9.38;5.75;;;29.40;44.30;;;;;;5098010;28;20075;-72
2023/06/18 09:26:25;;;;;;;8.13;5.63;;;29.40;45.00;;;;;;5115842;28;20026;-73
2023/06/18 09:28:51;;;;;;;6.85;5.13;;;29.20;44.30;;;;;;5116309;28;20484;-72
2023/06/18 09:31:25;;;;;;;6.60;5.20;;;29.10;45.80;;;;;;5115539;28;20031;-72
2023/06/18 09:33:51;;;;;;;6.35;5.32;;;29.20;45.60;;;;;;5116111;28;20016;-72
2023/06/18 09:36:17;;;;;;;6.75;5.40;;;29.20;44.80;;;;;;5115950;28;20042;-72
2023/06/18 09:38:43;;;;;;;5.95;5.15;;;29.10;44.60;;;;;;5115780;28;20449;-72
2023/06/18 09:41:14;;;;;;;7.18;5.63;;;29.20;46.00;;;;;;5080180;28;20024;-73
2023/06/18 09:43:43;;;;;;;11.93;5.70;;;29.20;46.00;;;;;;5115919;28;20058;-73
2023/06/18 09:46:09;;;;;;;6.90;4.93;;;29.10;45.50;;;;;;5096842;28;20048;-73
2023/06/18 09:48:42;;;;;;;7.90;5.53;;;29.10;46.00;;;;;;5115359;28;20035;-73
2023/06/18 09:51:08;;;;;;;9.75;5.75;;;29.10;45.70;;;;;;5097090;28;20020;-74
2023/06/18 09:53:34;;;;;;;8.52;6.15;;;28.90;45.70;;;;;;5097385;28;20020;-73
2023/06/18 09:56:13;;;;;;;6.28;5.68;;;28.80;45.70;;;;;;5115644;28;20043;-73
2023/06/18 09:58:40;;;;;;;8.48;5.60;;;28.80;46.10;;;;;;5115638;28;20024;-73
2023/06/18 10:01:06;;;;;;;6.47;5.82;;;28.60;45.80;;;;;;5115657;28;20046;-72
2023/06/18 10:03:31;;;;;;;9.27;6.38;;;28.50;45.90;;;;;;5115498;28;20102;-73
2023/06/18 10:06:15;;;;;;;6.63;5.70;;;28.30;46.30;;;;;;5097377;28;20460;-73
2023/06/18 10:08:44;;;;;;;6.68;5.88;;;28.30;46.60;;;;;;5097428;28;20024;-73
2023/06/18 10:11:10;;;;;;;6.15;5.55;;;28.40;47.00;;;;;;5096708;28;20055;-74
2023/06/18 10:13:47;;;;;;;8.38;5.28;;;28.50;47.20;;;;;;5097012;28;20019;-71
2023/06/18 10:16:18;;;;;;;9.50;6.20;;;28.50;47.40;;;;;;5114981;28;20019;-74
2023/06/18 10:19:05;;;;;;;8.82;6.25;;;28.40;45.80;;;;;;5097238;28;20028;-73
2023/06/18 10:21:34;;;;;;;6.63;5.97;;;28.30;46.20;;;;;;5114858;28;20466;-72
2023/06/18 10:24:22;;;;;;;9.15;6.30;;;28.30;46.40;;;;;;5115035;28;20039;-71
2023/06/18 10:26:48;;;;;;;9.50;6.05;;;28.30;46.10;;;;;;5096855;28;20430;-73
2023/06/18 10:29:15;;;;;;;9.10;5.45;;;28.30;46.70;;;;;;5114413;28;20509;-74
2023/06/18 10:31:41;;;;;;;6.45;5.85;;;28.40;46.90;;;;;;5096722;28;20023;-72
2023/06/18 10:34:08;;;;;;;6.75;5.93;;;28.50;46.20;;;;;;5096412;28;20032;-71
2023/06/18 10:36:34;;;;;;;8.25;5.88;;;28.50;45.20;;;;;;5096146;28;20037;-73
2023/06/18 10:39:01;;;;;;;7.53;5.90;;;28.40;45.50;;;;;;5096532;28;20468;-73
2023/06/18 10:41:27;;;;;;;6.93;6.20;;;28.50;45.20;;;;;;5095973;28;20031;-73
2023/06/18 10:43:54;;;;;;;7.68;6.07;;;28.30;45.00;;;;;;5114558;28;20395;-73
2023/06/18 10:46:21;;;;;;;8.60;6.00;;;28.10;45.40;;;;;;5114417;28;20051;-73
2023/06/18 10:49:15;;;;;;;11.38;6.18;;;28.10;45.70;;;;;;5115326;27;20031;-72
2023/06/18 10:51:42;;;;;;;7.45;5.80;;;28.30;46.10;;;;;;5116683;27;20491;-72
2023/06/18 10:54:27;;;;;;;11.48;5.60;;;28.40;47.90;;;;;;5134920;27;20110;-73
2023/06/18 10:56:57;;;;;;;6.75;5.60;;;28.50;46.10;;;;;;5134581;27;20046;-72
2023/06/18 10:59:36;;;;;;;;;;;28.60;46.70;;;;;;5134304;27;20026;-72
2023/06/18 11:02:02;;;;;;;7.32;5.50;;;28.70;45.40;;;;;;5134864;27;20087;-73
2023/06/18 11:04:33;;;;;;;9.40;5.78;;;28.80;45.30;;;;;;5133973;27;20037;-73
2023/06/18 11:07:12;;;;;;;6.32;5.47;;;28.90;45.60;;;;;;5131479;27;20128;-72
2023/06/18 11:09:50;;;;;;;6.00;5.40;;;29.00;44.30;;;;;;5134375;27;20058;-73
2023/06/18 11:12:23;;;;;;;13.27;6.07;;;28.90;43.80;;;;;;5134228;27;20051;-73
2023/06/18 11:15:17;;;;;;;6.32;5.38;;;28.80;43.70;;;;;;5130953;27;20098;-73
2023/06/18 11:17:44;;;;;;;6.53;5.90;;;28.90;45.40;;;;;;5114349;28;20115;-73
2023/06/18 11:20:12;;;;;;;8.50;5.60;;;28.80;45.40;;;;;;5113913;28;20357;-73
2023/06/18 11:22:39;;;;;;;6.15;5.38;;;28.80;45.20;;;;;;5113926;28;20068;-73
2023/06/18 11:25:08;;;;;;;8.73;5.97;;;28.80;44.20;;;;;;5114062;28;20429;-72
2023/06/18 11:27:34;;;;;;;8.02;5.90;;;28.70;43.30;;;;;;5095198;28;20076;-72
2023/06/18 11:30:00;;;;;;;8.45;5.95;;;28.60;43.20;;;;;;5114011;28;20110;-72
2023/06/18 11:32:26;;;;;;;9.73;5.55;;;28.60;43.20;;;;;;5095041;28;20024;-73
2023/06/18 11:34:54;;;;;;;7.72;5.82;;;28.60;43.70;;;;;;5113580;28;20032;-73
2023/06/18 11:37:19;;;;;;;6.80;5.47;;;28.60;44.10;;;;;;5113329;28;20024;-73
2023/06/18 11:39:47;;;;;;;6.72;5.57;;;28.60;43.30;;;;;;5113626;28;20024;-73
2023/06/18 11:42:22;;;;;;;6.82;5.93;;;28.40;42.50;;;;;;5113554;28;20027;-72
2023/06/18 11:44:50;;;;;;;6.40;5.70;;;28.40;42.70;;;;;;5113563;28;20035;-73
2023/06/18 11:47:16;;;;;;;10.45;5.80;;;28.40;43.00;;;;;;5112473;28;20509;-73
2023/06/18 11:49:46;;;;;;;6.97;5.90;;;28.30;42.80;;;;;;5113781;28;20034;-72
2023/06/18 11:52:16;;;;;;;7.07;5.35;;;28.20;42.40;;;;;;5112786;28;20498;-73
2023/06/18 11:54:43;;;;;;;7.25;5.10;;;28.10;42.30;;;;;;5094858;28;20028;-73
2023/06/18 11:57:13;;;;;;;5.55;4.80;;;28.10;43.00;;;;;;5113110;28;20420;-73
2023/06/18 11:59:40;;;;;;;5.68;5.10;;;28.10;43.20;;;;;;5094364;28;20479;-72
2023/06/18 12:02:10;;;;;;;11.63;5.15;;;28.00;42.00;;;;;;5113225;28;20093;-71
2023/06/18 12:04:36;;;;;;;6.55;5.00;;;28.10;42.80;;;;;;5112392;28;20110;-72
2023/06/18 12:07:01;;;;;;;6.35;5.30;;;28.20;43.10;;;;;;5112568;28;20050;-72
2023/06/18 12:09:32;;;;;;;8.15;5.82;;;28.20;42.50;;;;;;5112487;28;20452;-72
2023/06/18 12:12:11;;;;;;;7.55;5.18;;;28.20;42.30;;;;;;5112869;28;20463;-72
2023/06/18 12:15:08;;;;;;;6.95;5.60;;;28.10;42.10;;;;;;5112445;28;20091;-72
2023/06/18 12:18:13;;;;;;;5.40;4.90;;;28.10;42.60;;;;;;5112577;28;20038;-71
2023/06/18 12:20:39;;;;;;;7.05;5.28;;;28.10;42.70;;;;;;5112057;28;20108;-71
2023/06/18 12:23:05;;;;;;;8.43;5.35;;;28.20;43.10;;;;;;5094599;28;20031;-71
2023/06/18 12:25:31;;;;;;;17.67;5.68;;;28.20;43.20;;;;;;5094055;28;20035;-72
2023/06/18 12:28:02;;;;;;;6.07;5.47;;;28.20;44.20;;;;;;5112900;28;20054;-71
2023/06/18 12:30:34;;;;;;;8.00;5.53;;;28.10;43.50;;;;;;5094163;28;20055;-72
2023/06/18 12:33:03;;;;;;;8.07;4.97;;;28.00;42.60;;;;;;5112397;28;20034;-72
2023/06/18 12:35:30;;;;;;;7.50;4.72;;;27.90;40.80;;;;;;5112310;28;20111;-72
2023/06/18 12:38:00;;;;;;;7.57;4.78;;;27.80;38.10;;;;;;5112620;28;20028;-72
2023/06/18 12:40:26;;;;;;;5.60;4.88;;;27.80;38.60;;;;;;5094310;28;20094;-73
2023/06/18 12:42:52;;;;;;;7.35;5.38;;;27.90;38.50;;;;;;5094503;28;20027;-73
2023/06/18 12:45:29;;;;;;;8.73;5.40;;;27.90;39.90;;;;;;5112814;28;20425;-73
2023/06/18 12:47:55;;;;;;;6.05;5.45;;;27.90;41.20;;;;;;5112644;28;20118;-73